createdAt,value
2023-05-04T00:02:21.154Z,97525.16
2023-05-04T00:04:48.501Z,97520.81
2023-05-04T00:07:15.587Z,97526.44
2023-05-04T00:09:42.675Z,97522.63
2023-05-04T00:12:09.898Z,97525.28
2023-05-04T00:14:37.348Z,97521.53
2023-05-04T00:17:06.682Z,97519.41
2023-05-04T00:19:34.963Z,97510.91
2023-05-04T00:22:02.177Z,97508.78
2023-05-04T00:24:29.302Z,97510.91
2023-05-04T00:26:56.345Z,97513.63
2023-05-04T00:29:23.418Z,97510.63
2023-05-04T00:31:50.866Z,97510.06
2023-05-04T00:34:18.563Z,97514.63
2023-05-04T00:36:46.552Z,97506.09
2023-05-04T00:39:13.913Z,97509.84
2023-05-04T00:41:41.204Z,97511.16
2023-05-04T00:44:08.510Z,97508.19
2023-05-04T00:46:36.999Z,97509.28
2023-05-04T00:49:04.149Z,97510.91
2023-05-04T00:51:31.420Z,97501.78
2023-05-04T00:53:58.427Z,97503.34
2023-05-04T00:56:25.912Z,97504.13
2023-05-04T00:58:54.510Z,97500.97
2023-05-04T01:01:22.516Z,97501.88
2023-05-04T01:03:50.746Z,97502.22
2023-05-04T01:06:36.291Z,97502.72
2023-05-04T01:09:08.390Z,97509.94
2023-05-04T01:11:46.059Z,97506.94
2023-05-04T01:14:13.082Z,97511.13
2023-05-04T01:16:40.245Z,97506.50
2023-05-04T01:19:07.994Z,97506.72
2023-05-04T01:21:36.967Z,97511.16
2023-05-04T01:24:04.314Z,97506.13
2023-05-04T01:26:34.500Z,97503.97
2023-05-04T01:29:04.703Z,97506.47
2023-05-04T01:31:31.931Z,97502.31
2023-05-04T01:33:58.996Z,97500.88
2023-05-04T01:36:26.637Z,97496.56
2023-05-04T01:38:54.923Z,97498.56
2023-05-04T01:41:21.906Z,97503.41
2023-05-04T01:43:49.147Z,97492.28
2023-05-04T01:46:16.197Z,97497.63
2023-05-04T01:48:43.258Z,97497.97
2023-05-04T01:51:10.250Z,97498.38
2023-05-04T01:53:37.296Z,97493.72
2023-05-04T01:56:04.354Z,97489.84
2023-05-04T01:58:32.172Z,97488.19
2023-05-04T02:00:59.435Z,97489.16
2023-05-04T02:03:28.026Z,97483.44
2023-05-04T02:05:55.129Z,97491.69
2023-05-04T02:08:22.269Z,97490.34
2023-05-04T02:10:49.277Z,97489.91
2023-05-04T02:13:16.739Z,97489.56
2023-05-04T02:15:43.941Z,97484.84
2023-05-04T02:18:11.123Z,97487.88
2023-05-04T02:20:38.181Z,97484.34
2023-05-04T02:23:05.917Z,97483.81
2023-05-04T02:25:33.000Z,97483.88
2023-05-04T02:28:00.023Z,97481.38
2023-05-04T02:30:27.020Z,97484.16
2023-05-04T02:32:54.164Z,97491.34
2023-05-04T02:35:22.311Z,97491.53
2023-05-04T02:37:49.288Z,97489.97
2023-05-04T02:40:16.471Z,97488.59
2023-05-04T02:42:43.644Z,97487.88
2023-05-04T02:45:11.591Z,97491.06
2023-05-04T02:47:38.657Z,97486.44
2023-05-04T02:50:06.940Z,97486.28
2023-05-04T02:52:34.124Z,97485.50
2023-05-04T02:55:03.330Z,97489.53
2023-05-04T02:57:30.754Z,97478.59
2023-05-04T02:59:57.793Z,97480.78
2023-05-04T03:02:24.791Z,97489.28
2023-05-04T03:04:51.848Z,97479.63
2023-05-04T03:07:18.851Z,97479.44
2023-05-04T03:09:47.720Z,97485.72
2023-05-04T03:12:15.141Z,97480.00
2023-05-04T03:14:43.015Z,97484.00
2023-05-04T03:17:10.055Z,97478.84
2023-05-04T03:19:37.119Z,97478.94
2023-05-04T03:22:05.094Z,97478.50
2023-05-04T03:24:32.104Z,97480.09
2023-05-04T03:26:59.082Z,97480.88
2023-05-04T03:29:26.481Z,97475.09
2023-05-04T03:31:54.655Z,97474.28
2023-05-04T03:34:22.727Z,97468.63
2023-05-04T03:36:54.832Z,97474.88
2023-05-04T03:39:21.853Z,97463.63
2023-05-04T03:41:49.679Z,97470.88
2023-05-04T03:44:16.727Z,97464.00
2023-05-04T03:46:44.514Z,97469.31
2023-05-04T03:49:11.733Z,97469.28
2023-05-04T03:51:39.400Z,97467.22
2023-05-04T03:54:07.981Z,97471.00
2023-05-04T03:56:34.962Z,97466.75
2023-05-04T03:59:02.105Z,97468.97
2023-05-04T04:01:31.617Z,97469.03
2023-05-04T04:03:58.845Z,97467.88
2023-05-04T04:06:26.029Z,97466.88
2023-05-04T04:08:53.068Z,97469.91
2023-05-04T04:11:20.080Z,97464.06
2023-05-04T04:13:47.075Z,97465.72
2023-05-04T04:16:14.123Z,97471.00
2023-05-04T04:18:41.285Z,97466.72
2023-05-04T04:21:09.954Z,97464.72
2023-05-04T04:23:37.045Z,97471.19
2023-05-04T04:26:06.293Z,97471.75
2023-05-04T04:28:33.684Z,97467.44
2023-05-04T04:31:00.810Z,97467.75
2023-05-04T04:33:27.822Z,97475.06
2023-05-04T04:35:54.788Z,97466.28
2023-05-04T04:38:21.896Z,97473.72
2023-05-04T04:40:48.840Z,97473.97
2023-05-04T04:43:15.998Z,97479.88
2023-05-04T04:45:43.034Z,97484.44
2023-05-04T04:48:11.495Z,97483.16
2023-05-04T04:50:39.325Z,97492.75
2023-05-04T04:53:06.381Z,97493.88
2023-05-04T04:55:34.512Z,97506.19
2023-05-04T04:58:01.821Z,97506.97
2023-05-04T05:00:29.196Z,97504.03
2023-05-04T05:02:56.566Z,97505.69
2023-05-04T05:05:23.645Z,97506.75
2023-05-04T05:07:50.697Z,97512.88
2023-05-04T05:10:17.988Z,97506.97
2023-05-04T05:12:45.000Z,97501.78
2023-05-04T05:15:12.022Z,97500.50
2023-05-04T05:17:39.396Z,97504.28
2023-05-04T05:20:10.667Z,97500.41
2023-05-04T05:22:40.974Z,97496.44
2023-05-04T05:25:08.420Z,97508.78
2023-05-04T05:27:35.499Z,97498.50
2023-05-04T05:30:03.559Z,97509.50
2023-05-04T05:32:32.303Z,97504.53
2023-05-04T05:34:59.341Z,97500.88
2023-05-04T05:37:26.279Z,97500.59
2023-05-04T05:39:53.327Z,97505.13
2023-05-04T05:42:20.377Z,97497.63
2023-05-04T05:44:47.355Z,97501.09
2023-05-04T05:47:14.905Z,97504.94
2023-05-04T05:49:44.169Z,97496.41
2023-05-04T05:52:12.741Z,97493.03
2023-05-04T05:54:39.931Z,97493.16
2023-05-04T05:57:06.978Z,97495.03
2023-05-04T05:59:34.018Z,97493.66
2023-05-04T06:02:01.002Z,97487.97
2023-05-04T06:04:28.075Z,97497.84
2023-05-04T06:06:55.149Z,97490.78
2023-05-04T06:09:22.129Z,97501.63
2023-05-04T06:11:49.283Z,97491.53
2023-05-04T06:14:16.455Z,97491.97
2023-05-04T06:16:43.729Z,97491.63
2023-05-04T06:19:11.197Z,97491.38
2023-05-04T06:21:38.202Z,97483.00
2023-05-04T06:24:05.623Z,97498.56
2023-05-04T06:26:32.731Z,97493.22
2023-05-04T06:29:00.302Z,97484.38
2023-05-04T06:31:28.068Z,97480.75
2023-05-04T06:33:55.093Z,97488.59
2023-05-04T06:36:22.103Z,97475.84
2023-05-04T06:38:49.326Z,97493.53
2023-05-04T06:41:16.594Z,97483.84
2023-05-04T06:43:43.938Z,97477.19
2023-05-04T06:46:11.170Z,97479.19
2023-05-04T06:48:38.335Z,97479.63
2023-05-04T06:51:05.336Z,97480.88
2023-05-04T06:53:32.570Z,97483.00
2023-05-04T06:55:59.554Z,97477.72
2023-05-04T06:58:26.676Z,97477.97
2023-05-04T07:00:53.774Z,97479.00
2023-05-04T07:03:21.070Z,97478.34
2023-05-04T07:05:50.524Z,97479.03
2023-05-04T07:08:17.874Z,97482.19
2023-05-04T07:10:45.011Z,97485.75
2023-05-04T07:13:12.686Z,97479.22
2023-05-04T07:15:39.760Z,97476.38
2023-05-04T07:18:06.884Z,97467.06
2023-05-04T07:20:34.074Z,97475.28
2023-05-04T07:23:01.082Z,97480.34
2023-05-04T07:25:28.321Z,97479.38
2023-05-04T07:27:55.324Z,97483.50
2023-05-04T07:30:22.311Z,97472.28
2023-05-04T07:32:49.367Z,97478.94
2023-05-04T07:35:16.392Z,97480.88
2023-05-04T07:37:43.399Z,97478.94
2023-05-04T07:40:11.758Z,97465.94
2023-05-04T07:42:38.757Z,97461.81
2023-05-04T07:45:06.571Z,97483.50
2023-05-04T07:47:33.697Z,97460.31
2023-05-04T07:50:00.753Z,97469.47
2023-05-04T07:52:27.730Z,97469.19
2023-05-04T07:54:55.001Z,97463.41
2023-05-04T07:57:22.286Z,97464.00
2023-05-04T07:59:49.273Z,97467.94
2023-05-04T08:02:16.780Z,97468.06
2023-05-04T08:04:43.889Z,97466.78
2023-05-04T08:07:10.919Z,97466.41
2023-05-04T08:09:38.310Z,97466.19
2023-05-04T08:12:05.891Z,97460.09
2023-05-04T08:14:34.118Z,97459.00
2023-05-04T08:17:02.004Z,97460.81
2023-05-04T08:19:29.081Z,97456.09
2023-05-04T08:21:56.025Z,97453.50
2023-05-04T08:24:23.134Z,97467.59
2023-05-04T08:27:03.570Z,97459.66
2023-05-04T08:29:34.013Z,97462.50
2023-05-04T08:32:00.994Z,97464.66
2023-05-04T08:34:28.140Z,97463.56
2023-05-04T08:36:55.209Z,97463.44
2023-05-04T08:39:22.298Z,97465.66
2023-05-04T08:41:49.308Z,97468.28
2023-05-04T08:44:17.577Z,97471.72
2023-05-04T08:46:44.543Z,97465.34
2023-05-04T08:49:11.833Z,97470.25
2023-05-04T08:51:38.868Z,97464.41
2023-05-04T08:54:07.468Z,97468.72
2023-05-04T08:56:35.869Z,97467.50
2023-05-04T08:59:03.956Z,97464.19
2023-05-04T09:01:31.243Z,97463.53
2023-05-04T09:03:58.377Z,97469.94
2023-05-04T09:06:25.475Z,97463.78
2023-05-04T09:08:52.995Z,97465.38
2023-05-04T09:11:20.232Z,97468.09
2023-05-04T09:13:47.772Z,97470.19
2023-05-04T09:16:16.418Z,97475.13
2023-05-04T09:18:44.093Z,97459.34
2023-05-04T09:21:11.345Z,97470.09
2023-05-04T09:23:51.540Z,97455.97
2023-05-04T09:26:29.521Z,97458.22
2023-05-04T09:28:56.813Z,97444.25
2023-05-04T09:31:24.204Z,97454.03
2023-05-04T09:33:53.400Z,97454.94
2023-05-04T09:36:22.000Z,97448.41
2023-05-04T09:38:49.275Z,97452.59
2023-05-04T09:41:16.369Z,97439.16
2023-05-04T09:43:44.019Z,97445.63
2023-05-04T09:46:18.468Z,97438.94
2023-05-04T09:48:52.776Z,97433.00
2023-05-04T09:51:23.768Z,97434.25
2023-05-04T09:53:51.161Z,97441.50
2023-05-04T09:56:25.699Z,97437.03
2023-05-04T09:58:52.910Z,97443.84
2023-05-04T10:01:19.973Z,97433.06
2023-05-04T10:03:47.032Z,97433.34
2023-05-04T10:06:14.077Z,97426.19
2023-05-04T10:08:41.417Z,97422.00
2023-05-04T10:11:08.721Z,97405.97
2023-05-04T10:13:35.792Z,97411.19
2023-05-04T10:16:14.961Z,97403.53
2023-05-04T10:19:13.402Z,97410.59
2023-05-04T10:21:56.112Z,97403.56
2023-05-04T10:24:35.179Z,97401.59
2023-05-04T10:27:06.095Z,97409.34
2023-05-04T10:29:36.533Z,97403.06
2023-05-04T10:32:04.310Z,97395.47
2023-05-04T10:34:35.261Z,97390.25
2023-05-04T10:37:03.221Z,97384.22
2023-05-04T10:39:31.956Z,97375.22
2023-05-04T10:42:06.342Z,97383.78
2023-05-04T10:44:34.817Z,97378.56
2023-05-04T10:47:06.809Z,97390.50
2023-05-04T10:49:36.680Z,97389.09
2023-05-04T10:52:13.789Z,97387.66
2023-05-04T10:54:41.377Z,97378.72
2023-05-04T10:57:10.361Z,97374.31
2023-05-04T10:59:37.916Z,97367.59
2023-05-04T11:02:05.349Z,97368.25
2023-05-04T11:04:32.531Z,97368.84
2023-05-04T11:07:01.026Z,97362.25
2023-05-04T11:09:35.906Z,97361.41
2023-05-04T11:12:02.938Z,97358.72
2023-05-04T11:14:29.956Z,97351.16
2023-05-04T11:17:26.727Z,97347.69
2023-05-04T11:19:55.018Z,97345.84
2023-05-04T11:22:22.056Z,97344.06
2023-05-04T11:24:49.294Z,97350.25
2023-05-04T11:27:23.333Z,97347.28
2023-05-04T11:29:56.795Z,97334.41
2023-05-04T11:32:49.739Z,97337.47
2023-05-04T11:35:18.798Z,97331.63
2023-05-04T11:37:46.714Z,97324.78
2023-05-04T11:40:23.732Z,97322.72
2023-05-04T11:42:50.824Z,97324.91
2023-05-04T11:45:24.463Z,97310.59
2023-05-04T11:47:52.174Z,97315.22
2023-05-04T11:50:20.590Z,97315.19
2023-05-04T11:52:47.747Z,97309.19
2023-05-04T11:55:28.199Z,97299.63
2023-05-04T11:58:02.303Z,97301.56
2023-05-04T12:00:37.501Z,97302.50
2023-05-04T12:03:08.343Z,97294.81
2023-05-04T12:05:36.417Z,97293.19
2023-05-04T12:08:04.583Z,97286.19
2023-05-04T12:10:34.766Z,97286.03
2023-05-04T12:13:02.401Z,97279.44
2023-05-04T12:15:31.439Z,97284.59
2023-05-04T12:18:01.698Z,97274.03
2023-05-04T12:20:39.495Z,97276.09
2023-05-04T12:23:09.290Z,97271.91
2023-05-04T12:25:47.345Z,97267.38
2023-05-04T12:28:25.523Z,97262.88
2023-05-04T12:30:57.454Z,97259.13
2023-05-04T12:33:28.427Z,97263.22
2023-05-04T12:36:02.093Z,97256.88
2023-05-04T12:38:29.283Z,97257.09
2023-05-04T12:40:58.971Z,97259.66
2023-05-04T12:43:26.981Z,97251.50
2023-05-04T12:45:54.098Z,97251.41
2023-05-04T12:48:21.364Z,97249.34
2023-05-04T12:50:49.305Z,97255.25
2023-05-04T12:53:16.656Z,97240.94
2023-05-04T12:55:43.808Z,97251.41
2023-05-04T12:58:11.057Z,97251.22
2023-05-04T13:00:38.887Z,97238.81
2023-05-04T13:03:06.177Z,97245.66
2023-05-04T13:05:33.288Z,97241.72
2023-05-04T13:08:00.330Z,97237.03
2023-05-04T13:10:27.322Z,97238.63
2023-05-04T13:12:54.428Z,97236.16
2023-05-04T13:15:21.570Z,97225.94
2023-05-04T13:17:48.825Z,97224.00
2023-05-04T13:20:16.338Z,97221.09
2023-05-04T13:22:48.097Z,97222.47
2023-05-04T13:25:15.140Z,97224.56
2023-05-04T13:27:42.186Z,97226.25
2023-05-04T13:30:10.914Z,97215.75
2023-05-04T13:32:38.048Z,97220.41
2023-05-04T13:35:05.769Z,97215.09
2023-05-04T13:37:33.554Z,97215.56
2023-05-04T13:40:01.738Z,97209.81
2023-05-04T13:42:29.346Z,97214.34
2023-05-04T13:44:57.363Z,97205.81
2023-05-04T13:47:24.575Z,97196.91
2023-05-04T13:49:51.555Z,97196.88
2023-05-04T13:52:28.165Z,97191.66
2023-05-04T13:55:00.949Z,97186.66
2023-05-04T13:57:27.978Z,97182.75
2023-05-04T14:00:06.646Z,97178.13
2023-05-04T14:02:40.695Z,97185.84
2023-05-04T14:05:08.340Z,97184.06
2023-05-04T14:07:35.629Z,97174.56
2023-05-04T14:10:02.636Z,97166.81
2023-05-04T14:12:31.158Z,97166.72
2023-05-04T14:14:59.096Z,97169.91
2023-05-04T14:17:26.192Z,97154.16
2023-05-04T14:19:53.501Z,97160.00
2023-05-04T14:22:20.864Z,97153.56
2023-05-04T14:24:49.450Z,97162.50
2023-05-04T14:27:17.535Z,97164.84
2023-05-04T14:29:46.390Z,97161.91
2023-05-04T14:32:14.901Z,97159.75
2023-05-04T14:34:41.966Z,97164.78
2023-05-04T14:37:09.088Z,97155.72
2023-05-04T14:39:36.651Z,97154.50
2023-05-04T14:42:03.875Z,97150.50
2023-05-04T14:44:30.876Z,97158.38
2023-05-04T14:46:57.921Z,97149.03
2023-05-04T14:49:36.651Z,97150.44
2023-05-04T14:52:05.057Z,97147.00
2023-05-04T14:54:32.022Z,97147.34
2023-05-04T14:57:03.025Z,97149.13
2023-05-04T14:59:29.997Z,97142.38
2023-05-04T15:01:58.075Z,97142.03
2023-05-04T15:04:24.994Z,97143.84
2023-05-04T15:06:52.725Z,97144.41
2023-05-04T15:09:20.271Z,97132.97
2023-05-04T15:11:47.277Z,97123.72
2023-05-04T15:14:15.042Z,97132.25
2023-05-04T15:16:42.120Z,97137.88
2023-05-04T15:19:09.065Z,97132.59
2023-05-04T15:21:36.203Z,97134.75
2023-05-04T15:24:03.658Z,97128.22
2023-05-04T15:26:31.210Z,97128.75
2023-05-04T15:28:58.367Z,97120.94
2023-05-04T15:31:25.471Z,97116.16
2023-05-04T15:33:53.202Z,97127.56
2023-05-04T15:36:20.285Z,97117.41
2023-05-04T15:38:47.243Z,97120.19
2023-05-04T15:41:14.471Z,97115.69
2023-05-04T15:43:41.441Z,97111.34
2023-05-04T15:46:08.534Z,97098.75
2023-05-04T15:48:35.588Z,97108.50
2023-05-04T15:51:02.612Z,97109.47
2023-05-04T15:53:29.642Z,97108.97
2023-05-04T15:55:56.794Z,97104.72
2023-05-04T15:58:23.784Z,97105.06
2023-05-04T16:00:51.116Z,97112.84
2023-05-04T16:03:18.222Z,97100.31
2023-05-04T16:05:45.297Z,97105.75
2023-05-04T16:08:12.344Z,97107.38
2023-05-04T16:10:39.398Z,97106.38
2023-05-04T16:13:06.593Z,97103.41
2023-05-04T16:15:34.257Z,97103.56
2023-05-04T16:18:01.390Z,97104.69
2023-05-04T16:20:28.699Z,97094.72
2023-05-04T16:22:56.104Z,97089.09
2023-05-04T16:25:23.054Z,97085.81
2023-05-04T16:27:50.090Z,97081.25
2023-05-04T16:30:17.454Z,97078.94
2023-05-04T16:32:44.884Z,97077.97
2023-05-04T16:35:12.176Z,97076.84
2023-05-04T16:37:39.369Z,97080.06
2023-05-04T16:40:15.187Z,97078.78
2023-05-04T16:42:42.885Z,97083.91
2023-05-04T16:45:16.524Z,97070.13
2023-05-04T16:47:43.768Z,97073.06
2023-05-04T16:50:11.635Z,97075.56
2023-05-04T16:52:41.817Z,97070.84
2023-05-04T16:55:11.815Z,97062.88
2023-05-04T16:57:39.414Z,97065.56
2023-05-04T17:00:07.556Z,97073.53
2023-05-04T17:02:38.000Z,97071.66
2023-05-04T17:05:10.338Z,97081.56
2023-05-04T17:07:39.779Z,97071.66
2023-05-04T17:10:08.147Z,97073.63
2023-05-04T17:12:36.044Z,97069.66
2023-05-04T17:15:03.657Z,97065.28
2023-05-04T17:17:31.060Z,97063.75
2023-05-04T17:19:58.229Z,97062.16
2023-05-04T17:22:25.782Z,97066.13
2023-05-04T17:24:52.860Z,97063.22
2023-05-04T17:27:19.928Z,97059.69
2023-05-04T17:29:46.932Z,97058.56
2023-05-04T17:32:14.059Z,97063.44
2023-05-04T17:34:41.354Z,97065.38
2023-05-04T17:37:08.362Z,97069.31
2023-05-04T17:39:35.475Z,97061.34
2023-05-04T17:42:03.241Z,97066.59
2023-05-04T17:44:33.108Z,97068.59
2023-05-04T17:47:00.465Z,97073.78
2023-05-04T17:49:27.497Z,97069.84
2023-05-04T17:51:56.637Z,97074.91
2023-05-04T17:54:23.736Z,97077.75
2023-05-04T17:56:51.082Z,97071.25
2023-05-04T17:59:18.343Z,97071.59
2023-05-04T18:01:45.942Z,97079.66
2023-05-04T18:04:12.944Z,97080.22
2023-05-04T18:06:39.958Z,97079.44
2023-05-04T18:09:06.935Z,97088.81
2023-05-04T18:11:33.903Z,97094.31
2023-05-04T18:14:01.012Z,97097.59
2023-05-04T18:16:28.113Z,97095.03
2023-05-04T18:18:56.076Z,97093.47
2023-05-04T18:21:24.849Z,97104.59
2023-05-04T18:23:51.876Z,97096.78
2023-05-04T18:26:20.359Z,97098.09
2023-05-04T18:28:47.341Z,97096.03
2023-05-04T18:31:14.612Z,97099.66
2023-05-04T18:33:42.184Z,97102.38
2023-05-04T18:36:09.337Z,97102.09
2023-05-04T18:38:37.221Z,97102.47
2023-05-04T18:41:04.581Z,97105.38
2023-05-04T18:43:32.622Z,97101.59
2023-05-04T18:46:06.365Z,97110.25
2023-05-04T18:48:33.394Z,97122.38
2023-05-04T18:51:01.348Z,97109.25
2023-05-04T18:53:28.552Z,97120.66
2023-05-04T18:56:04.582Z,97128.88
2023-05-04T18:58:31.991Z,97135.28
2023-05-04T19:00:59.052Z,97133.22
2023-05-04T19:03:26.138Z,97139.13
2023-05-04T19:05:53.316Z,97133.06
2023-05-04T19:08:20.550Z,97142.75
2023-05-04T19:10:48.215Z,97142.75
2023-05-04T19:13:20.857Z,97154.59
2023-05-04T19:15:48.000Z,97146.00
2023-05-04T19:18:16.033Z,97144.88
2023-05-04T19:20:43.113Z,97150.16
2023-05-04T19:23:10.383Z,97153.03
2023-05-04T19:25:37.359Z,97145.53
2023-05-04T19:28:09.095Z,97147.16
2023-05-04T19:30:37.051Z,97153.94
2023-05-04T19:33:04.625Z,97152.75
2023-05-04T19:35:31.601Z,97150.09
2023-05-04T19:37:58.890Z,97149.47
2023-05-04T19:40:25.844Z,97145.97
2023-05-04T19:42:52.920Z,97156.28
2023-05-04T19:45:20.150Z,97151.69
2023-05-04T19:47:48.573Z,97149.50
2023-05-04T19:50:16.531Z,97156.28
2023-05-04T19:52:43.547Z,97156.34
2023-05-04T19:55:10.993Z,97159.94
2023-05-04T19:57:38.089Z,97164.63
2023-05-04T20:00:05.980Z,97159.22
2023-05-04T20:02:39.377Z,97154.31
2023-05-04T20:05:06.610Z,97157.63
2023-05-04T20:07:33.796Z,97159.41
2023-05-04T20:10:00.901Z,97155.81
2023-05-04T20:12:27.929Z,97153.56
2023-05-04T20:14:54.951Z,97145.81
2023-05-04T20:17:22.111Z,97148.75
2023-05-04T20:19:49.428Z,97146.13
2023-05-04T20:22:16.487Z,97139.78
2023-05-04T20:24:43.580Z,97138.25
2023-05-04T20:27:10.853Z,97137.19
2023-05-04T20:29:37.850Z,97132.31
2023-05-04T20:32:05.565Z,97127.97
2023-05-04T20:34:33.183Z,97138.06
2023-05-04T20:37:00.374Z,97132.06
2023-05-04T20:39:28.119Z,97133.44
2023-05-04T20:41:55.094Z,97133.28
2023-05-04T20:44:22.372Z,97130.78
2023-05-04T20:46:49.443Z,97130.56
2023-05-04T20:49:16.464Z,97130.50
2023-05-04T20:51:43.519Z,97133.69
2023-05-04T20:54:10.584Z,97117.16
2023-05-04T20:56:37.754Z,97117.38
2023-05-04T20:59:04.886Z,97117.16
2023-05-04T21:01:31.943Z,97115.97
2023-05-04T21:03:59.019Z,97124.13
2023-05-04T21:06:26.055Z,97115.59
2023-05-04T21:08:53.114Z,97117.56
2023-05-04T21:11:20.220Z,97114.41
2023-05-04T21:13:47.198Z,97112.69
2023-05-04T21:16:14.315Z,97117.97
2023-05-04T21:18:41.372Z,97120.06
2023-05-04T21:21:08.377Z,97123.53
2023-05-04T21:23:35.372Z,97116.88
2023-05-04T21:26:05.732Z,97111.88
2023-05-04T21:28:32.737Z,97116.31
2023-05-04T21:30:59.786Z,97119.69
2023-05-04T21:33:26.918Z,97113.91
2023-05-04T21:35:54.020Z,97110.66
2023-05-04T21:38:22.225Z,97103.13
2023-05-04T21:40:49.676Z,97105.50
2023-05-04T21:43:16.642Z,97107.19
2023-05-04T21:45:43.739Z,97106.88
2023-05-04T21:48:10.801Z,97103.25
2023-05-04T21:50:37.948Z,97109.03
2023-05-04T21:53:04.911Z,97104.66
2023-05-04T21:55:31.891Z,97105.47
2023-05-04T21:57:58.904Z,97108.09
2023-05-04T22:00:26.312Z,97102.09
2023-05-04T22:02:56.530Z,97107.75
2023-05-04T22:05:23.701Z,97103.81
2023-05-04T22:07:50.938Z,97108.75
2023-05-04T22:10:18.228Z,97109.44
2023-05-04T22:12:45.537Z,97109.88
2023-05-04T22:15:12.915Z,97105.50
2023-05-04T22:17:39.951Z,97107.13
2023-05-04T22:20:07.976Z,97110.19
2023-05-04T22:22:35.742Z,97104.34
2023-05-04T22:25:03.358Z,97111.00
2023-05-04T22:27:30.438Z,97104.41
2023-05-04T22:29:57.449Z,97106.88
2023-05-04T22:32:24.778Z,97110.41
2023-05-04T22:34:51.750Z,97115.34
2023-05-04T22:37:18.778Z,97122.91
2023-05-04T22:39:45.779Z,97125.94
2023-05-04T22:42:12.773Z,97129.22
2023-05-04T22:44:39.770Z,97128.59
2023-05-04T22:47:06.826Z,97123.72
2023-05-04T22:49:33.842Z,97129.56
2023-05-04T22:52:00.961Z,97125.97
2023-05-04T22:54:27.993Z,97132.13
2023-05-04T22:56:55.039Z,97126.19
2023-05-04T22:59:21.979Z,97121.28
2023-05-04T23:01:50.198Z,97114.28
2023-05-04T23:04:17.278Z,97116.34
2023-05-04T23:06:44.329Z,97115.03
2023-05-04T23:09:11.856Z,97111.69
2023-05-04T23:11:38.884Z,97120.78
2023-05-04T23:14:06.185Z,97114.91
2023-05-04T23:16:33.388Z,97118.09
2023-05-04T23:19:00.455Z,97108.41
2023-05-04T23:21:27.508Z,97106.22
2023-05-04T23:23:54.463Z,97102.41
2023-05-04T23:26:21.616Z,97102.94
2023-05-04T23:28:48.658Z,97103.63
2023-05-04T23:31:15.851Z,97098.47
2023-05-04T23:33:43.515Z,97106.03
2023-05-04T23:36:10.549Z,97106.88
2023-05-04T23:38:37.599Z,97105.94
2023-05-04T23:41:04.702Z,97107.28
2023-05-04T23:43:32.130Z,97108.28
2023-05-04T23:46:02.557Z,97103.00
2023-05-04T23:48:30.124Z,97099.41
2023-05-04T23:50:58.527Z,97101.53
2023-05-04T23:53:26.270Z,97105.25
2023-05-04T23:56:02.030Z,97103.97
2023-05-04T23:58:31.114Z,97096.38
